Time;durP1;ratioP1;P1;durP2;ratioP2;P2;SDS_P1;SDS_P2;PMS_P1;PMS_P2;Temp;Humidity;BMP_temperature;BMP_pressure;BME280_temperature;BME280_humidity;BME280_pressure;Samples;Min_cycle;Max_cycle;Signal;HPM_P1;HPM_P2
2021/04/05 00:01:25;;;;;;;52.00;26.90;;;5.30;99.90;;;-143.32;95.57;55859.28;4982185;28;20808;-91
2021/04/05 00:03:57;;;;;;;44.07;25.37;;;5.30;99.90;;;-143.32;95.49;55845.16;5002295;28;20448;-94
2021/04/05 00:06:35;;;;;;;42.93;25.50;;;5.30;99.90;;;-143.32;95.52;55863.34;5037952;28;20414;-92
2021/04/05 00:09:06;;;;;;;47.73;25.70;;;5.40;99.90;;;-143.32;95.63;55865.34;5037781;28;20477;-92
2021/04/05 00:11:33;;;;;;;42.13;25.10;;;5.40;99.90;;;-143.32;95.59;55913.88;5038493;28;20425;-93
2021/04/05 00:14:02;;;;;;;49.97;26.83;;;5.40;99.90;;;-143.32;95.81;55847.16;5037756;28;20487;-92
2021/04/05 00:17:00;;;;;;;55.80;24.70;;;5.50;99.90;;;-143.32;95.72;55849.19;5037170;28;20961;-90
2021/04/05 00:19:27;;;;;;;43.40;25.00;;;5.40;99.90;;;-143.32;95.78;55865.34;5037097;28;20425;-89
2021/04/05 00:22:00;;;;;;;42.27;26.30;;;5.30;99.90;;;-143.32;95.93;55814.81;5036868;28;20445;-89
2021/04/05 00:24:46;;;;;;;47.67;26.97;;;5.40;99.90;;;-143.32;96.00;55857.28;5036797;28;20475;-91
2021/04/05 00:27:23;;;;;;;53.87;28.20;;;5.40;99.90;;;-143.32;95.96;55863.34;5036778;28;20527;-89
2021/04/05 00:30:06;;;;;;;79.20;28.00;;;5.40;99.90;;;-143.32;96.21;55843.13;5036988;28;20710;-90
2021/04/05 00:33:03;;;;;;;46.60;25.50;;;5.30;99.90;;;-143.32;96.34;55845.16;5035985;28;20445;-90
2021/04/05 00:35:43;;;;;;;60.70;28.93;;;5.30;99.90;;;-143.32;96.56;55875.47;5036187;28;20422;-90
2021/04/05 00:38:13;;;;;;;45.47;25.87;;;5.30;99.90;;;-143.32;96.68;55869.41;5035672;28;20486;-89
2021/04/05 00:40:55;;;;;;;50.23;26.73;;;5.20;99.90;;;-143.32;96.61;55859.28;5038448;28;20931;-88
2021/04/05 00:44:19;;;;;;;54.63;26.20;;;5.20;99.90;;;-143.32;96.57;55845.16;5036165;28;20481;-89
2021/04/05 00:47:12;;;;;;;53.73;24.97;;;5.20;99.90;;;-143.32;96.38;55849.19;5036373;28;20499;-90
2021/04/05 00:50:08;;;;;;;39.67;23.87;;;5.30;99.90;;;-143.32;96.44;55885.56;5035771;28;21014;-90
2021/04/05 01:00:31;;;;;;;49.57;22.97;;;5.30;99.90;;;-143.32;96.03;55857.28;4991247;28;20440;-90
2021/04/05 01:03:33;;;;;;;;;;;;;;;;;;;;;
2021/04/05 01:07:07;;;;;;;46.30;23.67;;;5.40;99.90;;;-143.32;96.44;55835.03;5036407;28;20913;-90
2021/04/05 01:09:49;;;;;;;42.97;23.13;;;5.30;99.90;;;-143.32;96.45;55869.41;5013797;28;20481;-88
2021/04/05 01:12:29;;;;;;;49.60;23.70;;;5.30;99.90;;;-143.32;96.34;55855.25;5034774;28;20503;-90
2021/04/05 01:14:59;;;;;;;48.43;22.40;;;5.30;99.90;;;-143.32;96.63;55863.34;5035208;28;20429;-88
2021/04/05 01:17:29;;;;;;;52.63;24.30;;;5.30;99.90;;;-143.32;96.50;55826.94;5035245;28;20548;-89
2021/04/05 01:19:58;;;;;;;43.30;23.30;;;5.50;99.90;;;-143.32;96.75;55837.06;5035806;28;20441;-89
2021/04/05 01:22:59;;;;;;;42.70;22.77;;;5.30;99.90;;;-143.32;96.83;55835.03;5035442;28;20464;-90
2021/04/05 01:25:38;;;;;;;40.90;22.93;;;5.30;99.90;;;-143.32;96.87;55855.25;5035678;28;20472;-90
2021/04/05 01:31:40;;;;;;;43.47;22.30;;;5.30;99.90;;;-143.32;96.84;55851.22;5033885;28;20507;-90
2021/04/05 01:34:18;;;;;;;47.10;21.60;;;5.30;99.90;;;-143.32;96.92;55837.06;5035372;28;20449;-90
2021/04/05 01:37:15;;;;;;;37.93;21.70;;;5.30;99.90;;;-143.32;97.20;55891.63;5034946;28;20499;-89
2021/04/05 01:39:51;;;;;;;49.80;21.80;;;5.30;99.90;;;-143.32;97.25;55849.19;5035376;28;20953;-91
2021/04/05 01:42:29;;;;;;;45.00;21.60;;;5.30;99.90;;;-143.32;97.17;55843.13;5035060;28;20448;-89
2021/04/05 01:45:13;;;;;;;44.13;22.90;;;5.10;99.90;;;-143.32;97.38;55877.47;5044869;28;20460;-89
2021/04/05 01:48:13;;;;;;;37.60;21.87;;;5.20;99.90;;;-143.32;97.60;55845.16;5051270;28;20440;-91
2021/04/05 01:51:14;;;;;;;45.50;22.20;;;5.30;99.90;;;-143.32;97.48;55839.09;5046054;28;20573;-91
2021/04/05 01:53:46;;;;;;;39.60;21.00;;;5.40;99.90;;;-143.32;97.33;55855.25;5036280;28;20433;-92
2021/04/05 01:56:25;;;;;;;42.40;22.80;;;5.30;99.90;;;-143.32;97.40;55871.41;5035060;28;20417;-89
2021/04/05 01:59:00;;;;;;;48.90;21.37;;;5.30;99.90;;;-143.32;97.66;55837.06;5034933;28;20417;-91
2021/04/05 02:01:39;;;;;;;39.90;19.90;;;5.30;99.90;;;-143.32;97.43;55853.22;5035330;28;20765;-89
2021/04/05 02:04:10;;;;;;;42.17;21.07;;;5.30;99.90;;;-143.32;97.53;55863.34;5034483;28;20436;-88
2021/04/05 02:06:48;;;;;;;57.87;21.77;;;5.30;99.90;;;-143.32;97.68;55839.09;5034212;28;20879;-90
2021/04/05 02:09:19;;;;;;;41.03;20.83;;;5.30;99.90;;;-143.32;97.66;55824.94;5034091;28;20520;-89
2021/04/05 02:11:54;;;;;;;41.93;20.97;;;5.20;99.90;;;-143.32;97.67;55859.28;5033952;28;20464;-92
2021/04/05 02:14:22;;;;;;;41.27;22.00;;;5.30;99.90;;;-143.32;97.58;55857.28;5034558;28;20450;-89
2021/04/05 02:20:05;;;;;;;42.60;22.10;;;5.30;99.90;;;-143.32;97.68;55837.06;5032886;28;20445;-89
2021/04/05 02:22:40;;;;;;;40.97;20.57;;;5.30;99.90;;;-143.32;97.81;55867.38;5033600;28;21000;-89
2021/04/05 02:25:19;;;;;;;42.20;21.10;;;5.30;99.90;;;-143.32;97.71;55847.16;5033673;28;20428;-90
2021/04/05 02:27:57;;;;;;;42.67;22.43;;;5.30;99.90;;;-143.32;97.68;55798.66;5034306;28;20452;-89
2021/04/05 02:30:33;;;;;;;37.50;21.87;;;5.40;99.90;;;-143.32;97.89;55814.81;5033689;28;20487;-89
2021/04/05 02:33:04;;;;;;;46.57;21.83;;;5.40;99.90;;;-143.32;97.89;55816.84;5018165;28;20433;-88
2021/04/05 02:35:37;;;;;;;43.37;21.43;;;5.30;99.90;;;-143.32;97.78;55857.28;5034762;28;20816;-90
2021/04/05 02:38:07;;;;;;;44.87;21.07;;;5.30;99.90;;;-143.32;97.52;55837.06;5035003;28;20450;-91
2021/04/05 02:40:34;;;;;;;47.97;22.60;;;5.40;99.90;;;-143.32;97.61;55859.28;5033270;28;20445;-90
2021/04/05 02:43:07;;;;;;;44.73;21.90;;;5.40;99.90;;;-143.32;97.67;55845.16;5033619;28;20457;-89
2021/04/05 02:45:40;;;;;;;44.40;22.00;;;5.40;99.90;;;-143.32;97.65;55806.75;5034987;28;20472;-89
2021/04/05 02:48:10;;;;;;;45.40;20.97;;;5.40;99.90;;;-143.32;97.47;55867.38;5034315;28;20409;-89
2021/04/05 02:50:44;;;;;;;45.83;23.07;;;5.40;99.90;;;-143.32;97.57;55851.22;5034286;28;20565;-91
2021/04/05 02:53:11;;;;;;;40.70;22.00;;;5.40;99.90;;;-143.32;97.56;55845.16;5034943;28;20786;-90
2021/04/05 02:55:38;;;;;;;45.03;22.30;;;5.50;99.90;;;-143.32;97.48;55828.97;5033634;28;20484;-92
2021/04/05 02:58:31;;;;;;;53.70;24.20;;;5.50;99.90;;;-143.32;97.53;55814.81;5034251;28;20445;-90
2021/04/05 03:01:02;;;;;;;47.57;21.17;;;5.50;99.90;;;-143.32;97.18;55790.56;5034416;28;20922;-91
2021/04/05 03:03:48;;;;;;;;;;;;;;;;;;;;;
2021/04/05 03:06:24;;;;;;;43.80;22.30;;;5.60;99.90;;;-143.32;96.85;55824.94;5037890;28;20421;-90
2021/04/05 03:09:11;;;;;;;46.97;21.70;;;5.70;99.90;;;-143.32;96.91;55841.09;5037815;28;20479;-91
2021/04/05 03:11:55;;;;;;;43.77;20.97;;;5.70;99.90;;;-143.32;96.95;55808.75;5037440;28;20425;-88
2021/04/05 03:14:44;;;;;;;45.97;22.30;;;5.70;99.90;;;-143.32;97.03;55794.63;5037344;28;20894;-92
2021/04/05 03:17:16;;;;;;;46.30;21.60;;;5.80;99.90;;;-143.32;97.04;55822.91;5038650;28;20441;-89
2021/04/05 03:19:47;;;;;;;49.73;20.63;;;5.70;99.90;;;-143.32;97.23;55784.50;5038592;28;20548;-91
2021/04/05 03:22:20;;;;;;;45.27;21.53;;;5.70;99.90;;;-143.32;97.01;55816.84;5038966;28;20860;-89
2021/04/05 03:24:50;;;;;;;44.80;20.03;;;5.80;99.90;;;-143.32;97.11;55802.69;5039100;28;20499;-89
2021/04/05 03:27:19;;;;;;;51.43;21.27;;;5.80;99.90;;;-143.32;96.92;55826.94;5038268;28;20459;-90
2021/04/05 03:30:02;;;;;;;38.57;19.70;;;5.80;99.90;;;-143.32;97.04;55810.78;5036745;28;21010;-94
2021/04/05 03:32:30;;;;;;;35.23;19.20;;;5.90;99.90;;;-143.32;97.05;55808.75;5037530;28;20453;-90
2021/04/05 03:35:04;;;;;;;44.87;20.07;;;5.90;99.90;;;-143.32;96.92;55804.72;5037238;28;20535;-90
2021/04/05 03:37:36;;;;;;;42.80;19.83;;;6.00;99.90;;;-143.32;96.88;55808.75;5036958;28;20490;-91
2021/04/05 03:40:06;;;;;;;64.63;19.10;;;6.00;99.90;;;-143.32;97.13;55826.94;5036723;28;20437;-91
2021/04/05 03:42:44;;;;;;;44.07;19.10;;;6.10;99.90;;;-143.32;97.06;55798.66;5036527;28;20441;-92
2021/04/05 03:45:35;;;;;;;51.40;21.80;;;6.10;99.90;;;-143.32;97.02;55794.63;5036668;28;20457;-91
2021/04/05 03:48:30;;;;;;;44.63;19.83;;;6.30;99.90;;;-143.32;96.90;55800.69;5037021;28;20845;-91
2021/04/05 03:51:13;;;;;;;49.67;21.43;;;6.40;99.90;;;-143.32;96.93;55796.63;5036795;28;20738;-91
2021/04/05 03:53:50;;;;;;;43.37;21.17;;;6.20;99.90;;;-143.32;97.17;55808.75;5036709;28;20448;-90
2021/04/05 03:56:47;;;;;;;47.50;20.83;;;6.20;99.90;;;-143.32;97.21;55770.34;5036896;28;20471;-90
2021/04/05 04:04:10;;;;;;;42.93;19.20;;;6.30;99.90;;;-143.32;97.45;55766.31;4975835;28;20488;-91
2021/04/05 04:06:47;;;;;;;52.27;20.53;;;6.20;99.90;;;-143.32;97.61;55768.34;5000703;28;20545;-89
2021/04/05 04:09:34;;;;;;;38.87;20.37;;;6.30;99.90;;;-143.32;97.89;55774.41;5038348;28;20473;-94
2021/04/05 04:15:13;;;;;;;39.93;20.30;;;6.20;99.90;;;-143.32;98.00;55788.56;5038530;28;20514;-93
2021/04/05 04:21:39;;;;;;;46.73;19.97;;;6.20;99.90;;;-143.32;97.89;55794.63;5008084;28;20442;-92
2021/04/05 04:24:28;;;;;;;47.30;21.80;;;6.40;99.90;;;-143.32;98.07;55788.56;5045709;28;20449;-93
2021/04/05 04:27:27;;;;;;;43.00;20.30;;;6.20;99.90;;;-143.32;98.22;55774.41;5039634;28;20449;-92
2021/04/05 04:33:35;;;;;;;40.27;20.00;;;6.30;99.90;;;-143.32;98.31;55782.50;5035751;28;20436;-94
2021/04/05 04:39:11;;;;;;;54.07;20.93;;;6.30;99.90;;;-143.32;98.28;55772.38;5033894;28;20515;-94
2021/04/05 04:41:44;;;;;;;45.10;21.23;;;6.30;99.90;;;-143.32;98.31;55780.47;5037041;28;20452;-91
2021/04/05 04:44:30;;;;;;;43.83;20.00;;;6.20;99.90;;;-143.32;98.70;55792.59;5037526;28;20438;-92
2021/04/05 04:47:11;;;;;;;;;;;;;;;;;;;;;
2021/04/05 04:49:54;;;;;;;43.30;21.90;;;6.20;99.90;;;-143.32;99.12;55814.81;5036813;28;20498;-92
2021/04/05 04:52:39;;;;;;;48.10;21.97;;;6.10;99.90;;;-143.32;99.78;55750.16;5038290;28;20452;-94
2021/04/05 04:55:18;;;;;;;57.83;22.53;;;6.10;99.90;;;-143.32;100.00;55778.44;5036117;28;20448;-93
2021/04/05 04:58:22;;;;;;;43.50;22.60;;;6.00;99.90;;;-143.32;100.00;55762.28;5038055;28;20449;-92
2021/04/05 05:00:49;;;;;;;58.30;22.37;;;6.00;99.90;;;-143.32;100.00;55790.56;5037798;28;20436;-93
2021/04/05 05:03:22;;;;;;;53.10;22.00;;;5.90;99.90;;;-143.32;100.00;55721.84;5037010;28;20515;-93
2021/04/05 05:06:03;;;;;;;39.17;21.33;;;6.10;99.90;;;-143.32;100.00;55792.59;5037767;28;20405;-92
2021/04/05 05:08:45;;;;;;;47.33;21.60;;;6.00;99.90;;;-143.32;100.00;55772.38;5037533;28;20449;-93
2021/04/05 05:11:19;;;;;;;64.80;23.90;;;6.00;99.90;;;-143.32;100.00;55758.22;5039448;28;20465;-94
2021/04/05 05:13:59;;;;;;;46.23;23.20;;;6.00;99.90;;;-143.32;100.00;55796.63;5039159;28;20491;-95
2021/04/05 05:16:41;;;;;;;55.10;23.57;;;5.80;99.90;;;-143.32;100.00;55778.44;5038374;28;20440;-93
2021/04/05 05:22:18;;;;;;;49.77;22.00;;;6.00;99.90;;;-143.32;100.00;55782.50;5036483;28;20450;-94
2021/04/05 05:24:56;;;;;;;45.10;22.10;;;5.90;99.90;;;-143.32;100.00;55754.19;5036423;28;20843;-93
2021/04/05 05:27:24;;;;;;;50.77;21.50;;;6.00;99.90;;;-143.32;100.00;55744.09;5036304;28;20433;-93
2021/04/05 05:29:53;;;;;;;42.23;22.30;;;6.10;99.90;;;-143.32;100.00;55760.25;5036196;28;20489;-92
2021/04/05 05:32:40;;;;;;;43.27;22.47;;;6.10;99.90;;;-143.32;100.00;55762.28;5036547;28;20441;-93
2021/04/05 05:35:27;;;;;;;49.10;22.10;;;6.10;99.90;;;-143.32;100.00;55748.13;5036361;28;20449;-95
2021/04/05 05:38:02;;;;;;;48.10;20.97;;;6.10;99.90;;;-143.32;100.00;55721.84;5036431;28;20456;-93
2021/04/05 05:40:48;;;;;;;49.83;22.80;;;6.10;99.90;;;-143.32;100.00;55744.09;5036447;28;20515;-93
2021/04/05 05:46:37;;;;;;;44.67;22.17;;;6.20;99.90;;;-143.32;100.00;55762.28;5036411;28;20453;-93
2021/04/05 05:49:17;;;;;;;51.07;21.97;;;6.20;99.90;;;-143.32;100.00;55715.78;5037812;28;20472;-93
2021/04/05 05:52:15;;;;;;;50.80;22.10;;;6.20;99.90;;;-143.32;100.00;55705.69;5035717;28;21037;-93
2021/04/05 06:02:55;;;;;;;59.73;22.70;;;6.30;99.90;;;-143.32;100.00;55709.72;4994692;28;20438;-93
2021/04/05 06:05:36;;;;;;;48.17;23.90;;;6.30;99.90;;;-143.32;100.00;55689.50;4999208;28;20538;-92
2021/04/05 06:08:21;;;;;;;45.20;22.47;;;6.30;99.90;;;-143.32;100.00;55701.66;5035954;28;20448;-92
2021/04/05 06:11:17;;;;;;;53.13;25.20;;;6.30;99.90;;;-143.32;100.00;55677.38;5034721;28;20906;-93
2021/04/05 06:14:01;;;;;;;67.33;24.20;;;6.50;99.90;;;-143.32;100.00;55649.09;5035049;28;20541;-93
2021/04/05 06:16:41;;;;;;;47.83;23.20;;;6.60;99.90;;;-143.32;100.00;55681.44;5034800;28;20502;-95
2021/04/05 06:19:32;;;;;;;51.53;25.03;;;6.40;99.90;;;-143.32;100.00;55703.66;5034509;28;20429;-93
2021/04/05 06:22:19;;;;;;;52.00;25.57;;;6.40;99.90;;;-143.32;100.00;55639.00;5034524;28;20449;-94
2021/04/05 06:24:58;;;;;;;66.20;26.67;;;6.40;99.90;;;-143.32;100.00;55649.09;5036037;28;20471;-94
2021/04/05 06:27:37;;;;;;;59.80;26.30;;;6.40;99.90;;;-143.32;100.00;55661.22;5036431;28;20409;-93
2021/04/05 06:30:14;;;;;;;57.83;25.30;;;6.50;99.90;;;-143.32;100.00;55608.69;5035204;28;20473;-93
2021/04/05 06:32:57;;;;;;;67.93;27.67;;;6.40;99.90;;;-143.32;100.00;55628.88;5035410;28;20416;-92
2021/04/05 06:39:06;;;;;;;61.20;25.80;;;6.40;99.90;;;-143.32;100.00;55647.06;5011199;28;20502;-90
2021/04/05 06:42:13;;;;;;;48.80;25.80;;;6.50;99.90;;;-143.32;100.00;55624.84;5038331;28;20586;-94
2021/04/05 06:45:47;;;;;;;55.77;27.90;;;6.50;99.90;;;-143.32;100.00;55596.56;5029751;28;20514;-94
2021/04/05 06:48:49;;;;;;;52.27;24.97;;;6.60;99.90;;;-143.32;100.00;55604.63;5039008;28;20456;-93
2021/04/05 06:52:11;;;;;;;55.17;26.53;;;6.60;99.90;;;-143.32;100.00;55612.72;5039352;28;20452;-93
2021/04/05 06:55:27;;;;;;;64.30;26.80;;;6.50;99.90;;;-143.32;100.00;55588.47;5034861;28;20538;-92
2021/04/05 06:58:45;;;;;;;50.30;26.27;;;6.60;99.90;;;-143.32;100.00;55594.53;5039531;28;20469;-92
2021/04/05 07:09:12;;;;;;;58.67;28.23;;;6.60;99.90;;;-143.32;100.00;55574.31;4977411;28;20470;-93
2021/04/05 07:12:16;;;;;;;60.60;27.90;;;6.50;99.90;;;-143.32;100.00;55550.06;4996125;28;20459;-91
2021/04/05 07:14:57;;;;;;;62.87;28.03;;;6.50;99.90;;;-143.32;100.00;55541.97;5038444;28;20449;-94
2021/04/05 07:17:36;;;;;;;52.50;25.30;;;6.40;99.90;;;-143.32;100.00;55519.75;5037594;28;20414;-92
2021/04/05 07:20:14;;;;;;;44.93;25.00;;;6.40;99.90;;;-143.32;100.00;55485.41;5038256;28;20900;-92
2021/04/05 07:22:53;;;;;;;41.53;20.90;;;6.20;99.90;;;-143.32;100.00;55507.63;5038086;28;20467;-92
2021/04/05 07:25:27;;;;;;;33.90;14.57;;;6.30;99.90;;;-143.32;100.00;55554.09;5038561;28;20475;-91
2021/04/05 07:28:07;;;;;;;30.13;8.87;;;5.80;99.90;;;-143.32;100.00;55556.13;5039956;28;20448;-92
2021/04/05 07:30:42;;;;;;;7.97;4.40;;;5.60;99.90;;;-143.32;100.00;55602.59;5038592;28;20472;-92
2021/04/05 07:33:24;;;;;;;7.60;3.07;;;5.20;99.90;;;-143.32;100.00;55602.59;5038308;28;20405;-93
2021/04/05 07:36:04;;;;;;;4.97;2.70;;;5.00;99.90;;;-143.32;100.00;55606.66;5038589;28;20453;-91
2021/04/05 07:38:46;;;;;;;3.87;2.60;;;4.80;99.90;;;-143.32;100.00;55550.06;5038145;28;20741;-93
2021/04/05 07:41:26;;;;;;;15.97;3.77;;;4.60;99.90;;;-143.32;100.00;55548.03;5038419;28;20445;-94
2021/04/05 07:44:13;;;;;;;6.63;3.00;;;4.60;99.90;;;-143.32;100.00;55535.91;5038799;28;20433;-93
2021/04/05 07:46:48;;;;;;;2.80;2.37;;;4.70;99.90;;;-143.32;100.00;55513.69;5038035;28;20463;-94
2021/04/05 07:49:22;;;;;;;11.03;3.20;;;4.50;99.90;;;-143.32;100.00;55459.13;5038400;28;20477;-93
2021/04/05 07:51:55;;;;;;;5.43;2.60;;;4.50;99.90;;;-143.32;100.00;55434.88;5038140;28;20441;-92
2021/04/05 07:54:26;;;;;;;4.50;2.47;;;4.60;99.90;;;-143.32;100.00;55416.69;5040478;28;20433;-93
2021/04/05 07:57:06;;;;;;;10.13;2.70;;;4.50;99.90;;;-143.32;100.00;55364.13;5042654;28;20429;-93
2021/04/05 07:59:50;;;;;;;4.80;2.50;;;4.40;99.90;;;-143.32;100.00;55319.69;5044841;28;20426;-93
2021/04/05 08:02:42;;;;;;;3.97;2.50;;;4.40;99.90;;;-143.32;100.00;55271.19;5054973;28;20456;-92
2021/04/05 08:05:37;;;;;;;6.97;2.80;;;4.30;99.90;;;-143.32;100.00;55200.44;5051021;28;20449;-93
2021/04/05 08:08:41;;;;;;;4.07;2.20;;;4.40;99.90;;;-143.32;100.00;55184.28;5052258;28;20441;-93
2021/04/05 08:11:27;;;;;;;7.63;2.30;;;4.40;99.90;;;-143.32;100.00;55192.38;5046134;28;20472;-93
2021/04/05 08:14:14;;;;;;;5.60;2.00;;;4.30;99.90;;;-143.32;100.00;55202.47;5043741;28;20503;-93
2021/04/05 08:16:54;;;;;;;3.87;2.03;;;4.20;99.90;;;-143.32;100.00;55192.38;5047283;28;20430;-93
2021/04/05 08:19:33;;;;;;;8.83;3.33;;;4.20;99.90;;;-143.32;100.00;55214.59;5048632;28;20445;-92
2021/04/05 08:22:15;;;;;;;7.23;2.10;;;4.20;99.90;;;-143.32;100.00;55190.34;5052540;28;20405;-92
2021/04/05 08:24:56;;;;;;;6.90;2.40;;;4.30;99.90;;;-143.32;100.00;55174.19;5057022;28;20457;-95
2021/04/05 08:27:29;;;;;;;4.23;1.93;;;4.20;99.90;;;-143.32;100.00;55184.28;5057618;28;20405;-92
2021/04/05 08:30:01;;;;;;;5.47;2.20;;;4.40;99.90;;;-143.32;100.00;55143.88;5058222;28;20508;-92
2021/04/05 08:32:38;;;;;;;11.10;2.90;;;4.30;99.90;;;-143.32;100.00;55125.69;5046391;28;20469;-93
2021/04/05 08:35:30;;;;;;;8.70;2.77;;;4.40;99.90;;;-143.32;100.00;55089.31;5045628;28;20448;-95
2021/04/05 08:38:10;;;;;;;6.13;2.10;;;4.40;99.90;;;-143.32;100.00;55077.19;5045870;28;20441;-92
2021/04/05 08:44:27;;;;;;;3.43;2.30;;;4.30;99.90;;;-143.32;100.00;55196.41;5047899;28;20487;-93
2021/04/05 08:46:59;;;;;;;5.83;2.67;;;4.10;99.90;;;-143.32;100.00;55210.56;5047885;28;20409;-93
2021/04/05 08:49:29;;;;;;;9.33;2.13;;;4.00;99.90;;;-143.32;100.00;55269.16;5043351;28;20465;-93
2021/04/05 08:52:04;;;;;;;6.13;2.57;;;3.90;99.90;;;-143.32;100.00;55279.25;5041978;28;20460;-91
2021/04/05 08:54:32;;;;;;;11.43;2.97;;;3.70;99.90;;;-143.32;100.00;55305.53;5042329;28;20425;-92
2021/04/05 08:57:04;;;;;;;7.10;2.40;;;3.60;99.90;;;-143.32;100.00;55265.13;5038934;28;20452;-91
2021/04/05 08:59:39;;;;;;;12.90;2.60;;;3.60;99.90;;;-143.32;100.00;55293.41;5036105;28;20896;-90
2021/04/05 09:02:23;;;;;;;36.27;3.50;;;3.50;99.90;;;-143.32;100.00;55384.34;5035169;28;20437;-89
2021/04/05 09:04:53;;;;;;;16.40;3.03;;;3.60;99.90;;;-143.32;100.00;55473.28;5035807;28;20421;-90
2021/04/05 09:07:33;;;;;;;20.97;3.50;;;3.50;99.90;;;-143.32;100.00;55564.22;5039266;28;20445;-92
2021/04/05 09:10:05;;;;;;;15.53;3.33;;;3.40;99.90;;;-143.32;100.00;55582.41;5043081;28;20477;-94
2021/04/05 09:12:36;;;;;;;21.53;4.53;;;3.30;99.90;;;-143.32;100.00;55541.97;5034809;28;20479;-90
2021/04/05 09:15:39;;;;;;;15.00;3.47;;;3.20;99.90;;;-143.32;100.00;55527.84;5035173;28;20437;-89
2021/04/05 09:18:27;;;;;;;18.47;3.50;;;3.20;99.90;;;-143.32;100.00;55469.22;5005830;28;20487;-89
2021/04/05 09:21:15;;;;;;;28.27;3.83;;;3.30;99.90;;;-143.32;100.00;55511.66;5043179;28;20441;-92
2021/04/05 09:24:28;;;;;;;25.63;3.37;;;3.20;99.90;;;-143.32;100.00;55505.59;5044341;28;20445;-92
2021/04/05 09:31:26;;;;;;;26.20;4.10;;;3.40;99.90;;;-143.32;100.00;55513.69;4975720;28;20819;-94
2021/04/05 09:34:34;;;;;;;15.13;3.43;;;3.40;99.90;;;-143.32;100.00;55487.41;5035816;28;20445;-91
2021/04/05 09:37:43;;;;;;;17.50;3.63;;;3.50;99.90;;;-143.32;100.00;55465.19;5038651;28;20449;-92
2021/04/05 09:40:32;;;;;;;29.80;4.43;;;3.60;99.90;;;-143.32;100.00;55400.50;5042385;28;20483;-94
2021/04/05 09:43:25;;;;;;;22.77;4.10;;;3.90;99.90;;;-143.32;100.00;55457.09;5039925;28;20409;-94
2021/04/05 09:46:03;;;;;;;20.37;4.30;;;4.00;99.90;;;-143.32;100.00;55451.03;5038038;28;20832;-92
2021/04/05 09:49:04;;;;;;;11.53;3.17;;;4.20;99.90;;;-143.32;100.00;55544.00;5037384;28;20780;-92
2021/04/05 09:51:59;;;;;;;20.33;4.30;;;4.30;99.90;;;-143.32;100.00;55564.22;5043001;28;20445;-93
2021/04/05 09:54:34;;;;;;;11.67;3.00;;;4.40;99.90;;;-143.32;100.00;55525.81;5037505;28;20462;-95
2021/04/05 09:57:07;;;;;;;10.83;2.70;;;4.50;99.90;;;-143.32;100.00;55539.97;5037420;28;20437;-91
2021/04/05 09:59:44;;;;;;;15.90;3.27;;;4.60;99.90;;;-143.32;100.00;55586.44;5037252;28;20433;-89
2021/04/05 10:02:15;;;;;;;16.67;3.97;;;4.40;99.90;;;-143.32;100.00;55574.31;5034088;28;20432;-89
2021/04/05 10:04:45;;;;;;;15.97;3.27;;;4.50;99.90;;;-143.32;100.00;55570.28;5034940;28;20900;-88
2021/04/05 10:07:13;;;;;;;19.87;3.70;;;4.10;99.90;;;-143.32;100.00;55588.47;5034420;28;20842;-92
2021/04/05 10:09:47;;;;;;;16.17;3.47;;;3.50;99.90;;;-143.32;100.00;55570.28;5038903;28;20487;-94
2021/04/05 10:12:17;;;;;;;11.93;3.10;;;3.10;99.90;;;-143.32;100.00;55517.72;5044927;28;20433;-92
2021/04/05 10:14:46;;;;;;;15.40;3.13;;;3.00;99.90;;;-143.32;100.00;55531.88;5036647;28;20503;-92
2021/04/05 10:17:14;;;;;;;14.73;3.00;;;2.90;99.90;;;-143.32;100.00;55539.97;5035483;28;20981;-91
2021/04/05 10:19:43;;;;;;;15.50;3.30;;;2.90;99.90;;;-143.32;100.00;55479.34;5033715;28;20450;-89
2021/04/05 10:22:15;;;;;;;14.50;3.20;;;3.10;99.90;;;-143.32;100.00;55412.63;5033882;28;20448;-91
2021/04/05 10:24:49;;;;;;;14.10;3.07;;;3.30;99.90;;;-143.32;100.00;55440.94;5034453;28;20788;-91
2021/04/05 10:31:00;;;;;;;4.63;1.80;;;3.50;99.90;;;-143.32;100.00;55552.09;5035977;28;20816;-91
2021/04/05 10:33:31;;;;;;;2.53;1.63;;;3.00;99.90;;;-143.32;100.00;55590.47;5039371;28;20979;-93
2021/04/05 10:36:11;;;;;;;5.87;2.10;;;2.30;99.90;;;-143.32;100.00;55507.63;5043044;28;20461;-91
2021/04/05 10:39:31;;;;;;;6.27;2.77;;;1.80;99.90;;;-143.32;100.00;55529.84;5053336;28;20417;-92
2021/04/05 10:46:36;;;;;;;5.20;2.07;;;1.60;99.90;;;-143.32;100.00;55404.56;5052559;28;20428;-93
2021/04/05 10:49:12;;;;;;;2.83;1.50;;;1.80;99.90;;;-143.32;100.00;55471.25;5049790;28;20460;-92
2021/04/05 10:51:54;;;;;;;5.27;2.10;;;1.90;99.90;;;-143.32;100.00;55485.41;5046071;28;20432;-91
2021/04/05 10:54:31;;;;;;;4.47;1.83;;;2.00;99.90;;;-143.32;100.00;55444.97;5050793;28;20449;-93
2021/04/05 10:57:04;;;;;;;3.57;2.00;;;2.30;99.90;;;-143.32;100.00;55430.81;5046949;28;20449;-92
2021/04/05 10:59:39;;;;;;;5.00;2.07;;;2.60;99.90;;;-143.32;100.00;55469.22;5044652;28;20430;-92
2021/04/05 11:02:12;;;;;;;3.07;2.20;;;2.70;99.90;;;-143.32;100.00;55489.44;5041461;28;20474;-92
2021/04/05 11:04:48;;;;;;;3.63;2.13;;;2.80;99.90;;;-143.32;100.00;55531.88;5042112;28;20433;-93
2021/04/05 11:07:15;;;;;;;3.97;1.53;;;2.90;99.90;;;-143.32;100.00;55594.53;5036433;28;20409;-91
2021/04/05 11:09:43;;;;;;;8.10;2.00;;;2.90;99.90;;;-143.32;100.00;55600.59;5033926;28;20560;-89
2021/04/05 11:12:12;;;;;;;4.40;1.87;;;3.10;99.90;;;-143.32;100.00;55671.31;5033874;28;20437;-90
2021/04/05 11:14:41;;;;;;;4.63;2.03;;;3.10;99.90;;;-143.32;100.00;55661.22;5033582;28;20448;-90
2021/04/05 11:17:10;;;;;;;2.73;1.90;;;3.10;99.90;;;-143.32;100.00;55645.06;5034241;28;20452;-90
2021/04/05 15:28:01;;;;;;;2.20;1.70;;;1.10;99.90;;;-143.32;100.00;55703.66;4719170;30;20458;-93
2021/04/05 15:30:31;;;;;;;3.47;2.37;;;1.10;99.90;;;-143.32;100.00;55691.53;4810156;29;20524;-93
2021/04/05 15:33:13;;;;;;;7.37;2.20;;;1.20;99.90;;;-143.32;100.00;55661.22;4906638;29;20458;-93
2021/04/05 15:40:38;;;;;;;8.13;2.33;;;1.40;99.90;;;-143.32;100.00;55703.66;4930403;29;20440;-92
2021/04/05 15:43:30;;;;;;;8.50;2.40;;;1.40;99.90;;;-143.32;100.00;55695.56;4943513;28;20467;-92
2021/04/05 17:15:42;;;;;;;10.00;2.53;;;2.70;99.90;;;-143.32;94.41;55837.06;4935198;28;20435;-92
2021/04/05 17:26:42;;;;;;;9.93;2.30;;;2.70;99.90;;;-143.32;93.95;55839.09;4904976;29;20435;-91
